Time;durP1;ratioP1;P1;durP2;ratioP2;P2;SDS_P1;SDS_P2;PMS_P1;PMS_P2;Temp;Humidity;BMP_temperature;BMP_pressure;BME280_temperature;BME280_humidity;BME280_pressure;Samples;Min_cycle;Max_cycle;Signal;HPM_P1;HPM_P2
2021/09/28 00:00:33;;;;;;;4.55;1.13;;;;;;;-149.78;100.00;50287.59;4844178;29;20048;-73
2021/09/28 00:02:59;;;;;;;9.85;1.30;;;;;;;-149.78;100.00;50279.78;4826933;29;20402;-74
2021/09/28 00:05:25;;;;;;;5.45;1.20;;;;;;;-149.78;100.00;50295.44;4844010;29;20034;-73
2021/09/28 00:07:50;;;;;;;5.88;1.40;;;;;;;-149.78;100.00;50287.59;4824862;29;20110;-73
2021/09/28 00:10:17;;;;;;;4.03;1.10;;;;;;;-149.78;100.00;50309.13;4841105;29;20474;-73
2021/09/28 00:12:43;;;;;;;8.52;2.90;;;;;;;-149.78;100.00;50268.03;4826854;29;20049;-74
2021/09/28 00:15:11;;;;;;;4.40;1.23;;;;;;;-149.78;100.00;50264.13;4840998;29;20033;-74
2021/09/28 00:17:37;;;;;;;8.32;1.80;;;;;;;-149.78;100.00;50338.44;4826589;29;20122;-74
2021/09/28 00:20:06;;;;;;;4.68;1.15;;;;;;;-149.78;100.00;50260.22;4824376;29;20030;-73
2021/09/28 00:22:32;;;;;;;5.18;1.48;;;;;;;-149.78;100.00;50283.69;4843678;29;20571;-74
2021/09/28 00:24:57;;;;;;;7.18;1.55;;;;;;;-149.78;100.00;50287.59;4840458;29;20046;-74
2021/09/28 00:27:23;;;;;;;4.38;1.70;;;;;;;-149.78;100.00;50291.50;4842565;29;20041;-73
2021/09/28 00:29:49;;;;;;;8.10;1.80;;;;;;;-149.78;100.00;50283.69;4842730;29;20053;-74
2021/09/28 00:32:15;;;;;;;8.40;1.98;;;;;;;-149.78;100.00;50271.97;4842079;29;20105;-74
2021/09/28 00:34:42;;;;;;;4.43;1.40;;;;;;;-149.78;100.00;50260.22;4842016;29;20049;-73
2021/09/28 00:37:08;;;;;;;5.25;2.15;;;;;;;-149.78;100.00;50293.47;4840356;29;20498;-74
2021/09/28 00:39:33;;;;;;;7.60;2.05;;;;;;;-149.78;100.00;50275.88;4842696;29;20146;-74
2021/09/28 00:41:59;;;;;;;6.03;1.73;;;;;;;-149.78;100.00;50273.91;4826775;29;20038;-73
2021/09/28 00:44:40;;;;;;;5.57;1.70;;;;;;;-149.78;100.00;50289.56;4825748;29;20170;-74
2021/09/28 00:47:08;;;;;;;7.00;2.25;;;;;;;-149.78;100.00;50275.88;4841696;29;20038;-73
2021/09/28 00:49:34;;;;;;;4.20;1.60;;;;;;;-149.78;100.00;50264.13;4825511;29;20042;-74
2021/09/28 00:52:01;;;;;;;16.83;2.22;;;;;;;-149.78;100.00;50271.97;4843326;29;20525;-74
2021/09/28 00:54:27;;;;;;;6.75;2.00;;;;;;;-149.78;100.00;50277.81;4841374;29;20127;-74
2021/09/28 00:56:53;;;;;;;5.80;1.70;;;;;;;-149.78;100.00;50271.97;4826291;29;20120;-74
2021/09/28 00:59:20;;;;;;;5.03;1.60;;;;;;;-149.78;100.00;50291.50;4840666;29;20451;-73
2021/09/28 01:01:47;;;;;;;8.15;1.90;;;;;;;-149.78;100.00;50252.41;4825316;29;20034;-74
2021/09/28 01:04:16;;;;;;;9.35;2.20;;;;;;;-149.78;100.00;50289.56;4825905;29;20046;-74
2021/09/28 01:06:45;;;;;;;9.93;1.90;;;;;;;-149.78;100.00;50311.06;4833627;29;20038;-74
2021/09/28 01:09:12;;;;;;;6.15;2.03;;;;;;;-149.78;100.00;50268.03;4830428;29;20099;-74
2021/09/28 01:11:41;;;;;;;8.70;1.80;;;;;;;-149.78;100.00;50299.34;4825161;29;20411;-74
2021/09/28 01:14:08;;;;;;;8.35;1.63;;;;;;;-149.78;100.00;50260.22;4824494;29;20506;-74
2021/09/28 01:16:34;;;;;;;8.75;1.80;;;;;;;-149.78;100.00;50279.78;4805487;29;20083;-74
2021/09/28 01:19:01;;;;;;;8.80;2.20;;;;;;;-149.78;100.00;50264.13;4828347;29;20483;-74
2021/09/28 01:21:27;;;;;;;4.60;1.73;;;;;;;-149.78;100.00;50271.97;4837599;29;20090;-74
2021/09/28 01:23:53;;;;;;;8.60;2.00;;;;;;;-149.78;100.00;50287.59;4837865;29;20058;-74
2021/09/28 01:26:24;;;;;;;10.75;1.95;;;;;;;-149.78;100.00;50309.13;4842507;29;20457;-73
2021/09/28 01:28:52;;;;;;;7.45;2.00;;;;;;;-149.78;100.00;50330.63;4839053;29;20125;-73
2021/09/28 01:31:19;;;;;;;6.45;1.83;;;;;;;-149.78;100.00;50283.69;4838932;29;20406;-73
2021/09/28 01:33:44;;;;;;;5.20;1.75;;;;;;;-149.78;100.00;50293.47;4818315;29;20055;-74
2021/09/28 01:36:11;;;;;;;5.82;1.98;;;;;;;-149.78;100.00;50295.44;4836832;29;20077;-74
2021/09/28 01:38:37;;;;;;;9.80;1.88;;;;;;;-149.78;100.00;50275.88;4815292;29;20038;-73
2021/09/28 01:41:03;;;;;;;4.15;1.30;;;;;;;-149.78;100.00;50299.34;4840089;29;20402;-73
2021/09/28 01:43:28;;;;;;;8.75;1.70;;;;;;;-149.78;100.00;50314.97;4836146;29;20073;-74
2021/09/28 01:45:56;;;;;;;6.40;1.35;;;;;;;-149.78;100.00;50287.59;4824506;29;20044;-73
2021/09/28 01:48:26;;;;;;;9.27;2.63;;;;;;;-149.78;100.00;50291.50;4835785;29;20038;-73
2021/09/28 01:50:52;;;;;;;9.43;2.17;;;;;;;-149.78;100.00;50275.88;4841054;29;20458;-74
2021/09/28 01:53:18;;;;;;;5.70;1.83;;;;;;;-149.78;100.00;50303.25;4833828;29;20046;-73
2021/09/28 01:55:44;;;;;;;6.15;1.88;;;;;;;-149.78;100.00;50299.34;4825679;29;20057;-74
2021/09/28 01:58:09;;;;;;;9.27;1.77;;;;;;;-149.78;100.00;50279.78;4824333;29;20034;-74
2021/09/28 02:00:35;;;;;;;5.95;1.48;;;;;;;-149.78;100.00;50266.09;4841478;29;20390;-73
2021/09/28 02:03:00;;;;;;;7.13;1.52;;;;;;;-149.78;100.00;50295.44;4839358;29;20041;-74
2021/09/28 02:05:26;;;;;;;6.38;1.42;;;;;;;-149.78;100.00;50307.16;4836086;29;20038;-74
2021/09/28 02:07:52;;;;;;;6.13;1.55;;;;;;;-149.78;100.00;50297.38;4842512;29;20042;-74
2021/09/28 02:10:18;;;;;;;5.75;1.23;;;;;;;-149.78;100.00;50295.44;4839327;29;20038;-74
2021/09/28 02:12:44;;;;;;;6.55;1.77;;;;;;;-149.78;100.00;50287.59;4841170;29;20395;-74
2021/09/28 02:15:10;;;;;;;9.35;1.92;;;;;;;-149.78;100.00;50330.63;4838699;29;20046;-74
2021/09/28 02:17:35;;;;;;;8.60;1.65;;;;;;;-149.78;100.00;50311.06;4801909;29;20499;-74
2021/09/28 02:20:01;;;;;;;6.05;1.42;;;;;;;-149.78;100.00;50262.19;4818977;29;20094;-74
2021/09/28 02:22:28;;;;;;;5.60;1.40;;;;;;;-149.78;100.00;50299.34;4809355;29;20042;-74
2021/09/28 02:24:53;;;;;;;8.85;2.30;;;;;;;-149.78;100.00;50273.91;4824918;29;20034;-74
2021/09/28 02:27:19;;;;;;;4.05;1.40;;;;;;;-149.78;100.00;50295.44;4814747;29;20042;-74
2021/09/28 02:29:45;;;;;;;9.07;1.80;;;;;;;-149.78;100.00;50275.88;4840861;29;20090;-73
2021/09/28 02:32:11;;;;;;;6.05;1.30;;;;;;;-149.78;100.00;50275.88;4840681;29;20046;-74
2021/09/28 02:34:36;;;;;;;3.53;1.08;;;;;;;-149.78;100.00;50279.78;4840140;29;20049;-73
2021/09/28 02:37:04;;;;;;;7.35;1.70;;;;;;;-149.78;100.00;50287.59;4831952;29;20038;-74
2021/09/28 02:39:30;;;;;;;7.00;1.27;;;;;;;-149.78;100.00;50279.78;4825982;29;20121;-74
2021/09/28 02:41:56;;;;;;;8.82;1.50;;;;;;;-149.78;100.00;50270.00;4841898;29;20526;-73
2021/09/28 02:44:22;;;;;;;6.90;1.52;;;;;;;-149.78;100.00;50291.50;4825538;29;20129;-74
2021/09/28 02:46:47;;;;;;;8.02;1.65;;;;;;;-149.78;100.00;50297.38;4842184;29;20070;-74
2021/09/28 02:49:14;;;;;;;11.00;1.70;;;;;;;-149.78;100.00;50287.59;4843128;29;20490;-73
2021/09/28 02:51:39;;;;;;;6.03;1.48;;;;;;;-149.78;100.00;50279.78;4824717;29;20106;-74
2021/09/28 02:54:05;;;;;;;7.05;1.48;;;;;;;-149.78;100.00;50332.59;4811008;29;20042;-73
2021/09/28 02:56:31;;;;;;;8.55;1.98;;;;;;;-149.78;100.00;50311.06;4842826;29;20486;-73
2021/09/28 02:58:57;;;;;;;7.85;1.85;;;;;;;-149.78;100.00;50311.06;4843908;29;20086;-73
2021/09/28 03:01:22;;;;;;;5.15;1.27;;;;;;;-149.78;100.00;50311.06;4844615;29;20124;-73
2021/09/28 03:03:48;;;;;;;8.75;2.30;;;;;;;-149.78;100.00;50336.50;4844412;29;20532;-73
2021/09/28 03:06:13;;;;;;;13.32;2.30;;;;;;;-149.78;100.00;50256.31;4838765;29;20038;-73
2021/09/28 03:08:39;;;;;;;8.85;2.60;;;;;;;-149.78;100.00;50277.81;4827105;29;20038;-73
2021/09/28 03:11:05;;;;;;;11.48;2.15;;;;;;;-149.78;100.00;50270.00;4813905;29;20440;-73
2021/09/28 03:13:30;;;;;;;9.05;1.95;;;;;;;-149.78;100.00;50322.81;4826243;29;20079;-73
2021/09/28 03:15:56;;;;;;;14.10;2.03;;;;;;;-149.78;100.00;50311.06;4840249;29;20084;-73
2021/09/28 03:18:22;;;;;;;6.90;1.58;;;;;;;-149.78;100.00;50328.69;4839250;29;20071;-73
2021/09/28 03:20:48;;;;;;;6.40;1.33;;;;;;;-149.78;100.00;50279.78;4825707;29;20113;-73
2021/09/28 03:23:13;;;;;;;9.07;1.80;;;;;;;-149.78;100.00;50322.81;4828170;29;20038;-73
2021/09/28 03:25:41;;;;;;;5.47;1.48;;;;;;;-149.78;100.00;50283.69;4838451;29;20034;-73
2021/09/28 03:28:08;;;;;;;9.02;1.88;;;;;;;-149.78;100.00;50279.78;4832642;29;20061;-74
2021/09/28 03:30:34;;;;;;;8.40;1.70;;;;;;;-149.78;100.00;50287.59;4826380;29;20090;-74
2021/09/28 03:33:00;;;;;;;6.80;1.80;;;;;;;-149.78;100.00;50326.72;4842841;29;20034;-74
2021/09/28 03:35:25;;;;;;;6.57;1.75;;;;;;;-149.78;100.00;50307.16;4839759;29;20042;-74
2021/09/28 03:37:53;;;;;;;11.68;1.95;;;;;;;-149.78;100.00;50279.78;4841726;29;20468;-72
2021/09/28 03:40:19;;;;;;;9.02;1.90;;;;;;;-149.78;100.00;50322.81;4834336;29;20041;-73
2021/09/28 03:42:46;;;;;;;7.18;2.08;;;;;;;-149.78;100.00;50289.56;4843044;29;20030;-75
2021/09/28 03:45:13;;;;;;;6.40;2.20;;;;;;;-149.78;100.00;50334.53;4826293;29;20494;-75
2021/09/28 03:47:39;;;;;;;9.18;2.05;;;;;;;-149.78;100.00;50314.97;4837951;29;20034;-75
2021/09/28 03:50:06;;;;;;;14.55;3.67;;;;;;;-149.78;100.00;50299.34;4828401;29;20038;-74
2021/09/28 03:52:32;;;;;;;14.85;2.40;;;;;;;-149.78;100.00;50291.50;4840371;29;20041;-74
2021/09/28 03:54:58;;;;;;;14.13;2.47;;;;;;;-149.78;100.00;50295.44;4818133;29;20049;-74
2021/09/28 03:57:24;;;;;;;8.60;2.92;;;;;;;-149.78;100.00;50287.59;4810079;29;20049;-73
2021/09/28 03:59:50;;;;;;;11.00;3.22;;;;;;;-149.78;100.00;50285.66;4825223;29;20056;-74
2021/09/28 04:02:15;;;;;;;9.70;3.40;;;;;;;-149.78;100.00;50303.25;4826759;29;20356;-73
2021/09/28 04:04:41;;;;;;;10.57;3.50;;;;;;;-149.78;100.00;50314.97;4826394;29;20398;-74
2021/09/28 04:07:09;;;;;;;13.02;3.17;;;;;;;-149.78;100.00;50301.28;4826591;29;20046;-74
2021/09/28 04:09:34;;;;;;;14.15;3.38;;;;;;;-149.78;100.00;50293.47;4844561;29;20038;-74
2021/09/28 04:12:00;;;;;;;12.25;3.42;;;;;;;-149.78;100.00;50340.41;4845075;29;20045;-75
2021/09/28 04:14:26;;;;;;;10.52;3.30;;;;;;;-149.78;100.00;50336.50;4817703;29;20042;-74
2021/09/28 04:16:52;;;;;;;14.13;4.00;;;;;;;-149.78;100.00;50330.63;4807217;29;20058;-74
2021/09/28 04:19:17;;;;;;;13.20;3.95;;;;;;;-149.78;100.00;50289.56;4825004;29;20551;-74
2021/09/28 04:21:43;;;;;;;11.65;4.43;;;;;;;-149.78;100.00;50271.97;4824976;29;20038;-74
2021/09/28 04:24:11;;;;;;;16.95;4.18;;;;;;;-149.78;100.00;50314.97;4824485;29;20042;-73
2021/09/28 04:26:38;;;;;;;9.73;3.80;;;;;;;-149.78;100.00;50281.75;4825677;29;20174;-74
2021/09/28 04:29:03;;;;;;;11.27;4.22;;;;;;;-149.78;100.00;50287.59;4822423;29;20528;-74
2021/09/28 04:31:29;;;;;;;13.45;4.40;;;;;;;-149.78;100.00;50291.50;4823964;29;20136;-74
2021/09/28 04:33:54;;;;;;;11.00;3.90;;;;;;;-149.78;100.00;50295.44;4818015;29;20050;-74
2021/09/28 04:36:22;;;;;;;12.43;3.95;;;;;;;-149.78;100.00;50342.38;4821433;29;20046;-73
2021/09/28 04:38:48;;;;;;;12.30;4.93;;;;;;;-149.78;100.00;50311.06;4823768;29;20511;-74
2021/09/28 04:41:14;;;;;;;10.43;5.07;;;;;;;-149.78;100.00;50311.06;4823192;29;20038;-74
2021/09/28 04:43:39;;;;;;;16.77;4.68;;;;;;;-149.78;100.00;50283.69;4821024;29;20357;-74
2021/09/28 04:46:05;;;;;;;11.75;4.20;;;;;;;-149.78;100.00;50350.19;4823667;29;20067;-73
2021/09/28 04:48:30;;;;;;;16.33;4.57;;;;;;;-149.78;100.00;50322.81;4821880;29;20038;-73
2021/09/28 04:50:56;;;;;;;13.80;4.65;;;;;;;-149.78;100.00;50322.81;4819057;29;20125;-73
2021/09/28 04:53:24;;;;;;;11.90;4.13;;;;;;;-149.78;100.00;50295.44;4822800;29;20416;-72
2021/09/28 04:55:54;;;;;;;12.43;4.30;;;;;;;-149.78;100.00;50260.22;4792139;29;20054;-74
2021/09/28 04:58:25;;;;;;;11.50;4.38;;;;;;;-149.78;100.00;50328.69;4820341;29;20274;-73
2021/09/28 05:00:51;;;;;;;14.13;4.60;;;;;;;-149.78;100.00;50326.72;4823316;29;20501;-73
2021/09/28 05:03:16;;;;;;;10.05;4.00;;;;;;;-149.78;100.00;50307.16;4823893;29;20046;-74
2021/09/28 05:05:43;;;;;;;14.50;5.15;;;;;;;-149.78;100.00;50326.72;4822905;29;20562;-73
2021/09/28 05:08:08;;;;;;;10.65;4.05;;;;;;;-149.78;100.00;50314.97;4824438;29;20046;-73
2021/09/28 05:10:35;;;;;;;14.02;4.45;;;;;;;-149.78;100.00;50311.06;4815625;29;20045;-74
2021/09/28 05:13:00;;;;;;;12.30;4.22;;;;;;;-149.78;100.00;50303.25;4822118;29;20050;-74
2021/09/28 05:15:26;;;;;;;12.95;4.78;;;;;;;-149.78;100.00;50324.75;4807066;29;20498;-74
2021/09/28 05:17:52;;;;;;;13.35;4.18;;;;;;;-149.78;100.00;50279.78;4842034;29;20105;-73
2021/09/28 05:20:18;;;;;;;8.27;4.07;;;;;;;-149.78;100.00;50318.91;4841013;29;20049;-73
2021/09/28 05:22:44;;;;;;;9.68;4.10;;;;;;;-149.78;100.00;50314.97;4840393;29;20065;-74
2021/09/28 05:25:11;;;;;;;20.83;6.07;;;;;;;-149.78;100.00;50320.84;4825660;29;20086;-74
2021/09/28 05:27:37;;;;;;;14.93;4.63;;;;;;;-149.78;100.00;50307.16;4842162;29;20042;-74
2021/09/28 05:30:03;;;;;;;9.43;3.63;;;;;;;-149.78;100.00;50322.81;4841269;29;20076;-74
2021/09/28 05:32:29;;;;;;;9.80;3.80;;;;;;;-149.78;100.00;50299.34;4841114;29;20049;-74
2021/09/28 05:34:55;;;;;;;10.00;4.03;;;;;;;-149.78;100.00;50322.81;4843118;29;20486;-74
2021/09/28 05:37:20;;;;;;;11.55;3.80;;;;;;;-149.78;100.00;50322.81;4841548;29;20177;-74
2021/09/28 05:39:47;;;;;;;15.98;4.65;;;;;;;-149.78;100.00;50330.63;4841957;29;20125;-73
2021/09/28 05:42:13;;;;;;;9.05;3.70;;;;;;;-149.78;100.00;50295.44;4824438;29;20041;-74
2021/09/28 05:44:38;;;;;;;14.13;4.30;;;;;;;-149.78;100.00;50324.75;4811306;29;20042;-73
2021/09/28 05:47:04;;;;;;;15.73;4.28;;;;;;;-149.78;100.00;50303.25;4840845;29;20129;-74
2021/09/28 05:49:32;;;;;;;12.82;3.67;;;;;;;-149.78;100.00;50332.59;4839682;29;20052;-74
2021/09/28 05:51:59;;;;;;;17.02;4.18;;;;;;;-149.78;100.00;50271.97;4842279;29;20042;-73
2021/09/28 05:54:26;;;;;;;15.15;4.85;;;;;;;-149.78;100.00;50324.75;4840513;29;20076;-75
2021/09/28 05:56:53;;;;;;;12.95;5.07;;;;;;;-149.78;100.00;50322.81;4842283;29;20041;-75
2021/09/28 05:59:20;;;;;;;14.90;4.15;;;;;;;-149.78;100.00;50309.13;4840712;29;20482;-75
2021/09/28 06:01:48;;;;;;;10.00;4.25;;;;;;;-149.78;100.00;50334.53;4829141;29;20038;-75
2021/09/28 06:04:16;;;;;;;9.75;4.03;;;;;;;-149.78;100.00;50324.75;4820571;29;20030;-75
2021/09/28 06:06:42;;;;;;;15.00;5.00;;;;;;;-149.78;100.00;50314.97;4829163;29;20030;-75
2021/09/28 06:09:07;;;;;;;13.43;4.65;;;;;;;-149.78;100.00;50293.47;4832800;29;20137;-75
2021/09/28 06:11:33;;;;;;;15.00;4.80;;;;;;;-149.78;100.00;50301.28;4833430;29;20038;-75
2021/09/28 06:13:59;;;;;;;9.70;4.72;;;;;;;-149.78;100.00;50287.59;4813712;29;20516;-75
2021/09/28 06:16:25;;;;;;;12.45;4.40;;;;;;;-149.78;100.00;50297.38;4830719;29;20074;-74
2021/09/28 06:18:50;;;;;;;13.52;4.07;;;;;;;-149.78;100.00;50287.59;4815949;29;20046;-72
2021/09/28 06:21:16;;;;;;;16.90;4.93;;;;;;;-149.78;100.00;50326.72;4825363;29;20034;-73
2021/09/28 06:23:41;;;;;;;14.23;4.45;;;;;;;-149.78;100.00;50279.78;4826804;29;20034;-74
2021/09/28 06:26:08;;;;;;;15.02;4.68;;;;;;;-149.78;100.00;50287.59;4810804;29;20037;-77
2021/09/28 06:28:36;;;;;;;15.13;4.45;;;;;;;-149.78;100.00;50275.88;4828321;29;20099;-75
2021/09/28 06:31:01;;;;;;;13.48;4.70;;;;;;;-149.78;100.00;50266.09;4829227;29;21163;-76
2021/09/28 06:33:27;;;;;;;14.05;4.15;;;;;;;-149.78;100.00;50309.13;4817163;29;20129;-77
2021/09/28 06:35:53;;;;;;;17.08;4.43;;;;;;;-149.78;100.00;50289.56;4829173;29;20038;-75
2021/09/28 06:38:19;;;;;;;12.10;4.35;;;;;;;-149.78;100.00;50324.75;4814009;29;20403;-74
2021/09/28 06:40:44;;;;;;;10.85;3.88;;;;;;;-149.78;100.00;50287.59;4828301;29;20034;-73
2021/09/28 06:43:10;;;;;;;14.00;4.53;;;;;;;-149.78;100.00;50346.28;4833139;29;20038;-80
2021/09/28 06:45:36;;;;;;;13.82;4.45;;;;;;;-149.78;100.00;50326.72;4803634;29;20433;-75
2021/09/28 06:48:01;;;;;;;14.30;4.20;;;;;;;-149.78;100.00;50338.44;4830571;29;20379;-74
2021/09/28 06:50:27;;;;;;;10.10;4.25;;;;;;;-149.78;100.00;50303.25;4809846;29;20117;-74
2021/09/28 06:52:54;;;;;;;10.60;4.30;;;;;;;-149.78;100.00;50289.56;4829596;29;20487;-74
2021/09/28 06:55:20;;;;;;;13.73;3.80;;;;;;;-149.78;100.00;50338.44;4827081;29;20038;-74
2021/09/28 06:57:46;;;;;;;14.65;3.97;;;;;;;-149.78;100.00;50326.72;4826633;29;20044;-75
2021/09/28 07:00:12;;;;;;;10.07;4.20;;;;;;;-149.78;100.00;50299.34;4828314;29;20057;-74
2021/09/28 07:02:38;;;;;;;7.72;3.72;;;;;;;-149.78;100.00;50318.91;4830219;29;20470;-74
2021/09/28 07:05:11;;;;;;;16.60;4.00;;;;;;;-149.78;100.00;50295.44;4817245;29;20037;-74
2021/09/28 07:07:39;;;;;;;9.25;3.60;;;;;;;-149.78;100.00;50324.75;4837502;29;20090;-74
2021/09/28 07:10:06;;;;;;;13.77;4.10;;;;;;;-149.78;100.00;50295.44;4832041;29;20038;-74
2021/09/28 07:12:32;;;;;;;8.48;3.15;;;;;;;-149.78;100.00;50330.63;4829818;29;20039;-74
2021/09/28 07:14:58;;;;;;;7.55;3.25;;;;;;;-149.78;100.00;50303.25;4815763;29;20038;-73
2021/09/28 07:17:23;;;;;;;11.38;3.10;;;;;;;-149.78;100.00;50328.69;4798852;29;20054;-74
2021/09/28 07:19:49;;;;;;;10.70;3.03;;;;;;;-149.78;100.00;50291.50;4829441;29;20141;-74
2021/09/28 07:22:15;;;;;;;14.30;3.28;;;;;;;-149.78;100.00;50285.66;4830812;29;20408;-74
2021/09/28 07:24:40;;;;;;;12.18;3.00;;;;;;;-149.78;100.00;50303.25;4833611;29;20107;-74
2021/09/28 07:27:06;;;;;;;11.05;3.53;;;;;;;-149.78;100.00;50311.06;4831837;29;20079;-74
2021/09/28 07:29:32;;;;;;;11.32;3.53;;;;;;;-149.78;100.00;50299.34;4835238;29;20088;-73
2021/09/28 07:32:01;;;;;;;8.95;2.97;;;;;;;-149.78;100.00;50279.78;4812342;29;20499;-74
2021/09/28 07:34:27;;;;;;;8.20;3.30;;;;;;;-149.78;100.00;50271.97;4799430;29;20475;-74
2021/09/28 07:36:52;;;;;;;11.10;3.22;;;;;;;-149.78;100.00;50285.66;4839454;29;20117;-74
2021/09/28 07:39:18;;;;;;;9.45;3.13;;;;;;;-149.78;100.00;50275.88;4819404;29;20044;-73
2021/09/28 07:41:44;;;;;;;13.38;3.17;;;;;;;-149.78;100.00;50305.22;4836408;29;20053;-74
2021/09/28 07:44:09;;;;;;;21.73;3.15;;;;;;;-149.78;100.00;50291.50;4840907;29;20086;-74
2021/09/28 07:46:35;;;;;;;10.63;2.78;;;;;;;-149.78;100.00;50236.75;4842360;29;20516;-74
2021/09/28 07:49:01;;;;;;;11.75;2.53;;;;;;;-149.78;100.00;50209.38;4841989;29;20053;-74
2021/09/28 07:51:27;;;;;;;9.20;2.20;;;;;;;-149.78;100.00;50215.25;4842382;29;20048;-73
2021/09/28 07:53:53;;;;;;;9.70;1.95;;;;;;;-149.78;100.00;50158.53;4841580;29;20038;-74
2021/09/28 07:56:21;;;;;;;9.57;2.92;;;;;;;-149.78;100.00;50189.81;4842845;29;20057;-74
2021/09/28 07:58:47;;;;;;;6.47;2.22;;;;;;;-149.78;100.00;50162.44;4827708;29;20038;-74
2021/09/28 08:01:13;;;;;;;4.90;1.75;;;;;;;-149.78;100.00;50183.97;4841072;29;20034;-74
2021/09/28 08:03:38;;;;;;;7.22;1.88;;;;;;;-149.78;100.00;50205.47;4839124;29;20063;-74
2021/09/28 08:06:04;;;;;;;3.80;1.65;;;;;;;-149.78;100.00;50199.59;4827353;29;20042;-74
2021/09/28 08:08:30;;;;;;;7.70;2.10;;;;;;;-149.78;100.00;50144.84;4841436;29;20152;-74
2021/09/28 08:10:56;;;;;;;7.20;2.03;;;;;;;-149.78;100.00;50135.06;4800135;29;20042;-74
2021/09/28 08:13:23;;;;;;;7.78;1.90;;;;;;;-149.78;100.00;50103.78;4843507;29;20042;-74
2021/09/28 08:15:49;;;;;;;4.28;1.40;;;;;;;-149.78;100.00;50178.09;4826753;29;20574;-74
2021/09/28 08:18:15;;;;;;;6.78;2.10;;;;;;;-149.78;100.00;50189.81;4818654;29;20048;-74
2021/09/28 08:20:45;;;;;;;8.18;2.03;;;;;;;-149.78;100.00;50158.53;4825775;29;20038;-74
2021/09/28 08:23:11;;;;;;;4.65;1.50;;;;;;;-149.78;100.00;50174.19;4826146;29;20117;-74
2021/09/28 08:25:48;;;;;;;6.32;1.75;;;;;;;-149.78;100.00;50174.19;4826437;29;20460;-74
2021/09/28 08:31:03;;;;;;;7.72;2.72;;;;;;;-149.78;100.00;50189.81;4842255;29;20044;-74
2021/09/28 08:33:30;;;;;;;9.88;2.45;;;;;;;-149.78;100.00;50183.97;4842529;29;20502;-74
2021/09/28 08:35:56;;;;;;;11.65;2.53;;;;;;;-149.78;100.00;50185.91;4835174;29;20057;-74
2021/09/28 08:38:23;;;;;;;12.25;2.60;;;;;;;-149.78;100.00;50160.50;4827948;29;20129;-74
2021/09/28 08:40:48;;;;;;;9.15;2.10;;;;;;;-149.78;100.00;50140.94;4835308;29;20057;-74
2021/09/28 08:43:14;;;;;;;6.60;2.38;;;;;;;-149.78;100.00;50105.72;4827084;29;20110;-74
2021/09/28 08:45:42;;;;;;;10.38;2.60;;;;;;;-149.78;93.53;50111.59;4833921;29;20082;-74
2021/09/28 08:48:11;;;;;;;5.78;2.00;;;;;;;-149.78;72.03;50088.13;4824719;29;20034;-74
2021/09/28 08:50:38;;;;;;;5.95;1.92;;;;;;;-149.78;67.46;50054.88;4826596;29;20038;-74
2021/09/28 08:53:08;;;;;;;5.53;1.65;;;;;;;-149.78;64.08;50095.94;4840879;29;20038;-74
2021/09/28 08:55:35;;;;;;;3.97;1.58;;;;;;;-149.78;58.68;50017.72;4836973;29;20056;-74
2021/09/28 08:58:15;;;;;;;3.78;1.88;;;;;;;-149.78;56.30;49998.19;4826140;29;20558;-74
2021/09/28 09:00:41;;;;;;;6.18;1.55;;;;;;;-149.78;54.24;49972.75;4834988;29;20038;-74
2021/09/28 09:03:07;;;;;;;10.70;2.30;;;;;;;-149.78;51.85;49974.72;4842799;29;20065;-72
2021/09/28 09:05:33;;;;;;;4.45;1.50;;;;;;;-149.78;53.74;50025.56;4843114;29;20129;-74
2021/09/28 09:08:04;;;;;;;4.65;1.65;;;;;;;-149.78;54.99;50006.00;4842349;29;20041;-73
2021/09/28 09:10:37;;;;;;;5.03;2.10;;;;;;;-149.78;54.55;50021.63;4838129;29;20031;-74
2021/09/28 09:13:03;;;;;;;5.53;1.58;;;;;;;-149.78;53.86;49976.66;4840316;29;20042;-73
2021/09/28 09:15:34;;;;;;;5.85;1.83;;;;;;;-149.78;49.38;49982.53;4831143;29;20467;-74
2021/09/28 09:18:05;;;;;;;6.47;2.20;;;;;;;-149.78;50.77;50000.13;4841807;29;20046;-74
2021/09/28 09:20:42;;;;;;;10.07;2.35;;;;;;;-149.78;55.94;50029.47;4839601;29;20037;-74
2021/09/28 09:23:21;;;;;;;7.30;1.60;;;;;;;-149.78;59.06;50041.19;4826189;29;20100;-73
2021/09/28 09:26:04;;;;;;;4.70;1.52;;;;;;;-149.78;64.21;50041.19;4835216;29;20038;-74
2021/09/28 09:28:33;;;;;;;7.35;1.70;;;;;;;-149.78;69.60;50111.59;4825608;29;20078;-73
2021/09/28 09:31:11;;;;;;;7.68;2.20;;;;;;;-149.78;74.02;50142.88;4838232;29;20494;-75
2021/09/28 09:33:39;;;;;;;12.07;1.88;;;;;;;-149.78;77.39;50119.41;4825776;29;20046;-73
2021/09/28 09:36:04;;;;;;;7.55;1.75;;;;;;;-149.78;87.04;50158.53;4821524;29;20034;-74
2021/09/28 09:38:39;;;;;;;5.80;1.90;;;;;;;-149.78;95.25;50185.91;4840543;29;20390;-74
2021/09/28 09:41:05;;;;;;;5.90;1.70;;;;;;;-149.78;100.00;50178.09;4792925;29;20129;-74
2021/09/28 09:43:34;;;;;;;9.30;1.70;;;;;;;-149.78;100.00;50197.66;4825543;29;20491;-74
2021/09/28 09:46:17;;;;;;;7.85;2.42;;;;;;;-149.78;100.00;50185.91;4824454;29;20041;-74
2021/09/28 09:48:45;;;;;;;5.50;1.65;;;;;;;-149.78;100.00;50170.25;4834157;29;20136;-73
2021/09/28 09:51:14;;;;;;;8.25;1.80;;;;;;;-149.78;100.00;50174.19;4810207;29;20570;-74
2021/09/28 09:54:00;;;;;;;8.57;1.90;;;;;;;-149.78;100.00;50178.09;4840004;29;20045;-74
2021/09/28 09:56:51;;;;;;;9.55;2.08;;;;;;;-149.78;100.00;50170.25;4821686;29;20044;-74
2021/09/28 09:59:22;;;;;;;8.60;2.03;;;;;;;-149.78;89.92;50174.19;4837627;29;20038;-74
2021/09/28 10:01:48;;;;;;;7.93;1.75;;;;;;;-149.78;76.79;50135.06;4816894;29;20027;-74
2021/09/28 10:04:17;;;;;;;7.18;1.92;;;;;;;-149.78;73.19;50123.34;4841261;29;20038;-74
2021/09/28 10:06:43;;;;;;;6.45;1.73;;;;;;;-149.78;71.81;50109.66;4840700;29;20414;-74
2021/09/28 10:09:24;;;;;;;6.70;1.60;;;;;;;-149.78;71.47;50111.59;4841378;29;20482;-73
2021/09/28 10:11:52;;;;;;;6.68;1.40;;;;;;;-149.78;73.75;50131.16;4824303;29;20050;-73
2021/09/28 10:14:34;;;;;;;7.03;1.50;;;;;;;-149.78;67.43;50090.09;4826303;29;20462;-73
2021/09/28 10:17:01;;;;;;;6.93;1.60;;;;;;;-149.78;67.62;50115.50;4837457;29;20053;-73
2021/09/28 10:19:26;;;;;;;5.78;1.65;;;;;;;-149.78;67.28;50123.34;4840550;29;20034;-73
2021/09/28 10:21:53;;;;;;;6.28;1.25;;;;;;;-149.78;68.74;50099.88;4839457;29;20037;-73
2021/09/28 10:24:19;;;;;;;5.22;1.60;;;;;;;-149.78;67.22;50080.31;4825308;29;20034;-73
2021/09/28 10:26:46;;;;;;;4.55;1.40;;;;;;;-149.78;65.44;50111.59;4840269;29;20145;-76
2021/09/28 10:29:40;;;;;;;6.45;1.20;;;;;;;-149.78;62.03;50058.78;4836364;29;20069;-75
2021/09/28 10:32:24;;;;;;;9.57;1.85;;;;;;;-149.78;57.82;49988.41;4837873;29;20041;-77
2021/09/28 10:35:04;;;;;;;5.30;1.63;;;;;;;-149.78;54.30;50031.41;4800038;29;20090;-76
2021/09/28 10:37:42;;;;;;;6.20;1.73;;;;;;;-149.78;52.08;50006.00;4809188;29;20063;-78
2021/09/28 10:40:28;;;;;;;7.85;1.60;;;;;;;-149.78;53.30;50009.91;4836035;29;20034;-78
2021/09/28 10:43:02;;;;;;;3.85;1.60;;;;;;;-149.78;53.92;50025.56;4827256;29;20042;-75
2021/09/28 10:45:28;;;;;;;7.43;2.10;;;;;;;-149.78;56.29;50049.03;4828892;29;20027;-76
2021/09/28 10:48:07;;;;;;;5.57;1.25;;;;;;;-149.78;61.38;50125.28;4835760;29;20042;-78
2021/09/28 10:50:38;;;;;;;4.72;1.35;;;;;;;-149.78;65.92;50115.50;4820966;29;20053;-79
2021/09/28 10:53:20;;;;;;;7.00;1.35;;;;;;;-149.78;71.97;50154.63;4834413;29;20034;-80
2021/09/28 10:56:02;;;;;;;8.73;1.50;;;;;;;-149.78;74.12;50146.81;4804865;29;20129;-83
2021/09/28 10:58:29;;;;;;;6.30;1.33;;;;;;;-149.78;74.71;50123.34;4829940;29;20026;-83
2021/09/28 11:00:55;;;;;;;5.53;1.52;;;;;;;-149.78;70.47;50178.09;4833753;29;20117;-78
2021/09/28 11:03:51;;;;;;;4.30;1.40;;;;;;;-149.78;70.02;50099.88;4835637;29;20121;-76
2021/09/28 11:06:38;;;;;;;9.35;1.08;;;;;;;-149.78;66.74;50103.78;4833396;29;20034;-77
2021/09/28 11:09:03;;;;;;;7.13;1.48;;;;;;;-149.78;66.99;50121.38;4842579;29;20033;-76
2021/09/28 11:11:30;;;;;;;3.15;1.35;;;;;;;-149.78;68.61;50142.88;4809255;29;20082;-78